Terminal Aerodrome Forecast
Issued by NWS

Home | Current Version | Previous Version | Text Only | Print | Product List | Glossary On
Versions: 1 2 3 4 5 6 7 8 9 10 11 12 13 14 15 16 17 18 19 20 21 22 23 24 25 26 27 28 29 30 31 32 33 34 35 36 37 38 39 40 41 42 43 44 45
000
FTUS43 KIND 240520
TAFBMG
TAF
KBMG 240520Z 2406/2506 18009KT P6SM SCT050 BKN100
     FM241500 20009KT P6SM VCSH BKN021
     FM241800 22009KT 4SM -SHRA BR VCTS OVC016CB
     FM242300 25010KT 6SM -SHRA BR VCTS BKN090CB
     FM250000 25010KT P6SM SCT100
     AMD LTD TO CLD VIS AND WIND TIL 241300=

USA.gov is the U.S. government's official web portal to all federal, state and local government web resources and services.